ANA462 ROAH-RJTT
Flight info
| Callsign | ANA462 |
|---|---|
| Flight time | 1h 54m |
| Altitude | 39000 |
| Route | AMAMI Y574 SHIBK Y57 SUKBO Y571 BILLY Y21 AKSEL |
| Aircraft | B772/H-SDE2E3FGHIJ5LORVWXY/LB1D1 |
Departure
| Time | 2026-04-22 16:35 |
|---|---|
| Airport | Naha International Airport (ROAH) |
Arrival
| Time | 2026-04-22 18:29 |
|---|---|
| Airport | Tokyo Haneda International Airport (RJTT) |
| Time | Latitude | Longitude | Altitude | Speed | Heading |
|---|---|---|---|---|---|
| 2026-04-22 15:58 | 26.20708 | 127.64918 | 32 ft | 0 kts | 28° |
| 2026-04-22 16:27 | 26.20697 | 127.64913 | 33 ft | 2 kts | 14° |
| 2026-04-22 16:27 | 26.20681 | 127.64909 | 32 ft | 2 kts | 357° |
| 2026-04-22 16:27 | 26.20665 | 127.64912 | 32 ft | 2 kts | 332° |
| 2026-04-22 16:28 | 26.20651 | 127.64923 | 29 ft | 2 kts | 309° |
| 2026-04-22 16:28 | 26.20642 | 127.64938 | 30 ft | 2 kts | 291° |
| 2026-04-22 16:28 | 26.20638 | 127.64952 | 29 ft | 1 kts | 276° |
| 2026-04-22 16:28 | 26.20638 | 127.64955 | 29 ft | 0 kts | 273° |
| 2026-04-22 16:29 | 26.20638 | 127.64954 | 29 ft | 0 kts | 273° |
| 2026-04-22 16:31 | 26.20638 | 127.64953 | 29 ft | 0 kts | 273° |
| 2026-04-22 16:31 | 26.20638 | 127.64932 | 29 ft | 5 kts | 268° |
| 2026-04-22 16:31 | 26.20636 | 127.64890 | 29 ft | 7 kts | 266° |
| 2026-04-22 16:32 | 26.20634 | 127.64825 | 33 ft | 9 kts | 273° |
| 2026-04-22 16:32 | 26.20660 | 127.64763 | 33 ft | 9 kts | 318° |
| 2026-04-22 16:32 | 26.20719 | 127.64743 | 33 ft | 9 kts | 353° |
| 2026-04-22 16:32 | 26.20783 | 127.64739 | 33 ft | 10 kts | 357° |
| 2026-04-22 16:33 | 26.20851 | 127.64736 | 32 ft | 10 kts | 357° |
| 2026-04-22 16:33 | 26.20921 | 127.64732 | 33 ft | 11 kts | 354° |
| 2026-04-22 16:33 | 26.20975 | 127.64682 | 32 ft | 11 kts | 289° |
| 2026-04-22 16:33 | 26.20978 | 127.64634 | 32 ft | 0 kts | 264° |
| 2026-04-22 16:34 | 26.20977 | 127.64623 | 32 ft | 8 kts | 261° |
| 2026-04-22 16:34 | 26.20912 | 127.64526 | 32 ft | 19 kts | 194° |
| 2026-04-22 16:35 | 26.20741 | 127.64535 | 33 ft | 37 kts | 178° |
| 2026-04-22 16:35 | 26.20299 | 127.64550 | 32 ft | 100 kts | 176° |
| 2026-04-22 16:35 | 26.19345 | 127.64600 | 127 ft | 164 kts | 178° |
| 2026-04-22 16:35 | 26.18222 | 127.64689 | 1114 ft | 159 kts | 175° |
| 2026-04-22 16:36 | 26.17098 | 127.64754 | 2025 ft | 166 kts | 178° |
| 2026-04-22 16:36 | 26.15843 | 127.64807 | 2256 ft | 193 kts | 178° |
| 2026-04-22 16:36 | 26.14411 | 127.64873 | 2538 ft | 220 kts | 178° |
| 2026-04-22 16:36 | 26.12785 | 127.64941 | 2778 ft | 245 kts | 178° |
| 2026-04-22 16:37 | 26.11056 | 127.65021 | 3420 ft | 252 kts | 179° |
| 2026-04-22 16:37 | 26.09299 | 127.65098 | 4165 ft | 255 kts | 179° |
| 2026-04-22 16:37 | 26.07511 | 127.65176 | 4849 ft | 259 kts | 179° |
| 2026-04-22 16:37 | 26.05689 | 127.65255 | 5471 ft | 264 kts | 179° |
| 2026-04-22 16:38 | 26.03846 | 127.65425 | 6025 ft | 270 kts | 167° |
| 2026-04-22 16:38 | 26.02170 | 127.66441 | 6557 ft | 284 kts | 137° |
| 2026-04-22 16:38 | 26.01107 | 127.68312 | 7159 ft | 293 kts | 107° |
| 2026-04-22 16:38 | 26.00933 | 127.70558 | 7775 ft | 294 kts | 87° |
| 2026-04-22 16:39 | 26.01052 | 127.72850 | 8347 ft | 297 kts | 82° |
| 2026-04-22 16:39 | 26.01757 | 127.75001 | 8873 ft | 300 kts | 53° |
| 2026-04-22 16:39 | 26.03040 | 127.76817 | 9505 ft | 301 kts | 48° |
| 2026-04-22 16:39 | 26.04358 | 127.78604 | 10173 ft | 304 kts | 48° |
| 2026-04-22 16:40 | 26.05749 | 127.80480 | 10476 ft | 326 kts | 48° |
| 2026-04-22 16:40 | 26.07249 | 127.82506 | 10747 ft | 349 kts | 48° |
| 2026-04-22 16:40 | 26.10420 | 127.86830 | 12151 ft | 369 kts | 49° |
| 2026-04-22 16:41 | 26.12060 | 127.89077 | 12954 ft | 378 kts | 49° |
| 2026-04-22 16:41 | 26.13738 | 127.91378 | 13779 ft | 386 kts | 49° |
| 2026-04-22 16:41 | 26.15443 | 127.93719 | 14561 ft | 392 kts | 49° |
| 2026-04-22 16:41 | 26.17240 | 127.96004 | 15299 ft | 392 kts | 40° |
| 2026-04-22 16:42 | 26.19479 | 127.97741 | 15803 ft | 396 kts | 28° |
| 2026-04-22 16:42 | 26.21885 | 127.99309 | 16496 ft | 404 kts | 27° |
| 2026-04-22 16:42 | 26.24321 | 128.00879 | 17374 ft | 406 kts | 27° |
| 2026-04-22 16:42 | 26.26772 | 128.02474 | 18180 ft | 411 kts | 28° |
| 2026-04-22 16:43 | 26.29250 | 128.04109 | 18817 ft | 417 kts | 28° |
| 2026-04-22 16:43 | 26.31755 | 128.05781 | 19446 ft | 422 kts | 28° |
| 2026-04-22 16:43 | 26.34282 | 128.07482 | 20093 ft | 427 kts | 28° |
| 2026-04-22 16:43 | 26.36839 | 128.09212 | 20738 ft | 432 kts | 28° |
| 2026-04-22 16:44 | 26.39391 | 128.10942 | 21370 ft | 437 kts | 28° |
| 2026-04-22 16:44 | 26.42000 | 128.12712 | 22007 ft | 442 kts | 27° |
| 2026-04-22 16:44 | 26.44644 | 128.14506 | 22628 ft | 447 kts | 27° |
| 2026-04-22 16:44 | 26.47322 | 128.16325 | 23258 ft | 452 kts | 27° |
| 2026-04-22 16:45 | 26.50021 | 128.18158 | 23831 ft | 456 kts | 27° |
| 2026-04-22 16:45 | 26.52748 | 128.20012 | 24419 ft | 460 kts | 27° |
| 2026-04-22 16:45 | 26.55487 | 128.21876 | 25027 ft | 462 kts | 27° |
| 2026-04-22 16:45 | 26.58239 | 128.23748 | 25623 ft | 465 kts | 27° |
| 2026-04-22 16:46 | 26.61013 | 128.25638 | 26196 ft | 468 kts | 27° |
| 2026-04-22 16:46 | 26.63805 | 128.27539 | 26725 ft | 471 kts | 27° |
| 2026-04-22 16:46 | 26.66583 | 128.29431 | 27230 ft | 475 kts | 27° |
| 2026-04-22 16:46 | 26.69302 | 128.31581 | 27674 ft | 485 kts | 40° |
| 2026-04-22 16:47 | 26.71540 | 128.34424 | 28067 ft | 491 kts | 49° |
| 2026-04-22 16:47 | 26.73620 | 128.37474 | 28465 ft | 496 kts | 51° |
| 2026-04-22 16:47 | 26.75695 | 128.40570 | 28931 ft | 499 kts | 50° |
| 2026-04-22 16:47 | 26.77799 | 128.43666 | 29422 ft | 500 kts | 50° |
| 2026-04-22 16:48 | 26.79937 | 128.46744 | 29875 ft | 503 kts | 49° |
| 2026-04-22 16:48 | 26.82112 | 128.49826 | 30248 ft | 505 kts | 49° |
| 2026-04-22 16:48 | 26.84306 | 128.52910 | 30583 ft | 508 kts | 49° |
| 2026-04-22 16:48 | 26.86512 | 128.56010 | 30920 ft | 510 kts | 49° |
| 2026-04-22 16:49 | 26.88729 | 128.59132 | 31249 ft | 513 kts | 49° |
| 2026-04-22 16:49 | 26.90952 | 128.62271 | 31560 ft | 515 kts | 48° |
| 2026-04-22 16:49 | 26.93287 | 128.65304 | 31786 ft | 513 kts | 40° |
| 2026-04-22 16:49 | 26.96143 | 128.67618 | 31969 ft | 503 kts | 24° |
| 2026-04-22 16:50 | 26.99254 | 128.69441 | 32135 ft | 506 kts | 22° |
| 2026-04-22 16:50 | 27.02394 | 128.71235 | 32369 ft | 508 kts | 22° |
| 2026-04-22 16:50 | 27.05502 | 128.73023 | 32634 ft | 509 kts | 22° |
| 2026-04-22 16:50 | 27.08648 | 128.74864 | 32906 ft | 511 kts | 23° |
| 2026-04-22 16:51 | 27.11788 | 128.76735 | 33215 ft | 511 kts | 23° |
| 2026-04-22 16:51 | 27.14910 | 128.78619 | 33597 ft | 509 kts | 23° |
| 2026-04-22 16:51 | 27.18022 | 128.80513 | 33979 ft | 507 kts | 23° |
| 2026-04-22 16:51 | 27.21117 | 128.82402 | 34304 ft | 506 kts | 23° |
| 2026-04-22 16:52 | 27.24210 | 128.84291 | 34603 ft | 506 kts | 23° |
| 2026-04-22 16:52 | 27.27302 | 128.86178 | 34899 ft | 505 kts | 23° |
| 2026-04-22 16:52 | 27.30389 | 128.88062 | 35198 ft | 504 kts | 23° |
| 2026-04-22 16:52 | 27.33469 | 128.89941 | 35509 ft | 503 kts | 23° |
| 2026-04-22 16:53 | 27.36546 | 128.91819 | 35812 ft | 502 kts | 23° |
| 2026-04-22 16:53 | 27.39616 | 128.93693 | 36105 ft | 502 kts | 23° |
| 2026-04-22 16:53 | 27.42685 | 128.95567 | 36388 ft | 501 kts | 22° |
| 2026-04-22 16:53 | 27.45750 | 128.97440 | 36671 ft | 500 kts | 22° |
| 2026-04-22 16:54 | 27.48802 | 128.99307 | 36946 ft | 500 kts | 22° |
| 2026-04-22 16:54 | 27.51854 | 129.01174 | 37214 ft | 499 kts | 22° |
| 2026-04-22 16:54 | 27.54904 | 129.03043 | 37478 ft | 499 kts | 22° |
| 2026-04-22 16:54 | 27.57948 | 129.04908 | 37739 ft | 498 kts | 22° |
| 2026-04-22 16:55 | 27.60994 | 129.06776 | 37992 ft | 497 kts | 22° |
| 2026-04-22 16:55 | 27.64035 | 129.08642 | 38242 ft | 497 kts | 22° |
| 2026-04-22 16:55 | 27.67071 | 129.10506 | 38486 ft | 496 kts | 22° |
| 2026-04-22 16:55 | 27.70102 | 129.12368 | 38665 ft | 496 kts | 22° |
| 2026-04-22 16:56 | 27.73140 | 129.14235 | 38767 ft | 498 kts | 22° |
| 2026-04-22 16:56 | 27.79238 | 129.17987 | 38852 ft | 499 kts | 22° |
| 2026-04-22 16:57 | 27.85322 | 129.21737 | 38856 ft | 498 kts | 22° |
| 2026-04-22 16:57 | 27.91403 | 129.25489 | 38859 ft | 498 kts | 22° |
| 2026-04-22 16:58 | 27.96447 | 129.28605 | 38857 ft | 497 kts | 22° |
| 2026-04-22 16:58 | 28.03551 | 129.32999 | 38854 ft | 498 kts | 22° |
| 2026-04-22 16:59 | 28.09587 | 129.36738 | 38855 ft | 498 kts | 22° |
| 2026-04-22 16:59 | 28.15664 | 129.40507 | 38850 ft | 498 kts | 23° |
| 2026-04-22 17:00 | 28.21747 | 129.44285 | 38846 ft | 498 kts | 23° |
| 2026-04-22 17:00 | 28.30884 | 129.49968 | 38836 ft | 500 kts | 23° |
| 2026-04-22 17:01 | 28.36996 | 129.53777 | 38842 ft | 501 kts | 23° |
| 2026-04-22 17:01 | 28.42609 | 129.58507 | 38838 ft | 517 kts | 49° |
| 2026-04-22 17:02 | 28.44491 | 129.62017 | 38839 ft | 524 kts | 64° |
| 2026-04-22 17:02 | 28.45498 | 129.66004 | 38830 ft | 526 kts | 82° |
| 2026-04-22 17:02 | 28.46258 | 129.74281 | 38840 ft | 528 kts | 84° |
| 2026-04-22 17:03 | 28.47018 | 129.82592 | 38833 ft | 529 kts | 83° |
| 2026-04-22 17:03 | 28.47895 | 129.90902 | 38849 ft | 530 kts | 82° |
| 2026-04-22 17:04 | 28.48797 | 129.99220 | 38853 ft | 530 kts | 82° |
| 2026-04-22 17:04 | 28.49688 | 130.07538 | 38851 ft | 530 kts | 81° |
| 2026-04-22 17:05 | 28.51688 | 130.15537 | 38857 ft | 525 kts | 64° |
| 2026-04-22 17:05 | 28.55237 | 130.22716 | 38858 ft | 518 kts | 51° |
| 2026-04-22 17:06 | 28.59414 | 130.29398 | 38836 ft | 518 kts | 51° |
| 2026-04-22 17:06 | 28.63568 | 130.36109 | 38838 ft | 519 kts | 51° |
| 2026-04-22 17:07 | 28.67665 | 130.42881 | 38838 ft | 519 kts | 52° |
| 2026-04-22 17:07 | 28.71753 | 130.49670 | 38842 ft | 520 kts | 52° |
| 2026-04-22 17:08 | 28.75843 | 130.56457 | 38846 ft | 520 kts | 52° |
| 2026-04-22 17:08 | 28.79936 | 130.63261 | 38845 ft | 520 kts | 52° |
| 2026-04-22 17:09 | 28.84022 | 130.70070 | 38844 ft | 521 kts | 52° |
| 2026-04-22 17:09 | 28.88110 | 130.76894 | 38851 ft | 521 kts | 52° |
| 2026-04-22 17:10 | 28.92173 | 130.83686 | 38846 ft | 522 kts | 52° |
| 2026-04-22 17:10 | 28.96262 | 130.90534 | 38843 ft | 522 kts | 52° |
| 2026-04-22 17:11 | 29.00364 | 130.97414 | 38840 ft | 526 kts | 51° |
| 2026-04-22 17:11 | 29.04506 | 131.04369 | 38855 ft | 531 kts | 51° |
| 2026-04-22 17:12 | 29.08670 | 131.11377 | 38855 ft | 534 kts | 51° |
| 2026-04-22 17:12 | 29.12835 | 131.18401 | 38853 ft | 534 kts | 51° |
| 2026-04-22 17:13 | 29.17002 | 131.25439 | 38850 ft | 534 kts | 51° |
| 2026-04-22 17:13 | 29.21158 | 131.32469 | 38844 ft | 533 kts | 51° |
| 2026-04-22 17:14 | 29.25310 | 131.39505 | 38847 ft | 532 kts | 51° |
| 2026-04-22 17:14 | 29.29452 | 131.46535 | 38847 ft | 531 kts | 51° |
| 2026-04-22 17:15 | 29.33579 | 131.53552 | 38851 ft | 531 kts | 51° |
| 2026-04-22 17:15 | 29.37672 | 131.60523 | 38846 ft | 530 kts | 51° |
| 2026-04-22 17:16 | 29.41792 | 131.67554 | 38850 ft | 530 kts | 52° |
| 2026-04-22 17:16 | 29.45207 | 131.73393 | 38852 ft | 530 kts | 52° |
| 2026-04-22 17:17 | 29.49999 | 131.81603 | 38843 ft | 529 kts | 52° |
| 2026-04-22 17:17 | 29.53402 | 131.87442 | 38861 ft | 529 kts | 52° |
| 2026-04-22 17:18 | 29.57491 | 131.94469 | 38863 ft | 529 kts | 52° |
| 2026-04-22 17:18 | 29.61574 | 132.01500 | 38848 ft | 529 kts | 52° |
| 2026-04-22 17:19 | 29.70239 | 132.15058 | 38856 ft | 524 kts | 45° |
| 2026-04-22 17:20 | 29.79570 | 132.27957 | 38856 ft | 525 kts | 45° |
| 2026-04-22 17:21 | 29.86518 | 132.37719 | 38855 ft | 525 kts | 46° |
| 2026-04-22 17:22 | 29.93451 | 132.47509 | 38859 ft | 526 kts | 46° |
| 2026-04-22 17:23 | 30.00385 | 132.57314 | 38857 ft | 526 kts | 46° |
| 2026-04-22 17:23 | 30.07287 | 132.67096 | 38860 ft | 526 kts | 46° |
| 2026-04-22 17:24 | 30.11929 | 132.73689 | 38859 ft | 526 kts | 46° |
| 2026-04-22 17:24 | 30.16511 | 132.80207 | 38861 ft | 526 kts | 46° |
| 2026-04-22 17:25 | 30.21116 | 132.86769 | 38862 ft | 526 kts | 46° |
| 2026-04-22 17:25 | 30.25718 | 132.93338 | 38865 ft | 525 kts | 46° |
| 2026-04-22 17:26 | 30.30316 | 132.99911 | 38859 ft | 525 kts | 46° |
| 2026-04-22 17:26 | 30.34907 | 133.06485 | 38868 ft | 525 kts | 46° |
| 2026-04-22 17:27 | 30.39497 | 133.13068 | 38865 ft | 525 kts | 46° |
| 2026-04-22 17:27 | 30.44079 | 133.19652 | 38870 ft | 525 kts | 46° |
| 2026-04-22 17:28 | 30.48658 | 133.26241 | 38870 ft | 525 kts | 46° |
| 2026-04-22 17:28 | 30.53228 | 133.32829 | 38865 ft | 524 kts | 46° |
| 2026-04-22 17:29 | 30.57796 | 133.39425 | 38867 ft | 524 kts | 47° |
| 2026-04-22 17:29 | 30.62355 | 133.46020 | 38868 ft | 523 kts | 47° |
| 2026-04-22 17:30 | 30.66906 | 133.52613 | 38865 ft | 523 kts | 47° |
| 2026-04-22 17:30 | 30.71455 | 133.59215 | 38867 ft | 523 kts | 47° |
| 2026-04-22 17:31 | 30.76004 | 133.65829 | 38865 ft | 524 kts | 47° |
| 2026-04-22 17:31 | 30.80556 | 133.72457 | 38866 ft | 525 kts | 47° |
| 2026-04-22 17:32 | 30.85113 | 133.79101 | 38866 ft | 526 kts | 47° |
| 2026-04-22 17:32 | 30.89679 | 133.85767 | 38875 ft | 527 kts | 47° |
| 2026-04-22 17:33 | 30.94254 | 133.92461 | 38873 ft | 529 kts | 47° |
| 2026-04-22 17:33 | 30.98837 | 133.99181 | 38872 ft | 530 kts | 47° |
| 2026-04-22 17:34 | 31.03424 | 134.05917 | 38874 ft | 531 kts | 47° |
| 2026-04-22 17:34 | 31.08014 | 134.12670 | 38877 ft | 531 kts | 47° |
| 2026-04-22 17:35 | 31.12604 | 134.19434 | 38876 ft | 531 kts | 47° |
| 2026-04-22 17:35 | 31.17188 | 134.26202 | 38891 ft | 531 kts | 47° |
| 2026-04-22 17:36 | 31.21764 | 134.32970 | 38886 ft | 530 kts | 47° |
| 2026-04-22 17:36 | 31.26327 | 134.39728 | 38884 ft | 529 kts | 47° |
| 2026-04-22 17:37 | 31.30880 | 134.46485 | 38886 ft | 528 kts | 47° |
| 2026-04-22 17:37 | 31.35388 | 134.53188 | 38890 ft | 527 kts | 47° |
| 2026-04-22 17:38 | 31.39912 | 134.59923 | 38891 ft | 526 kts | 47° |
| 2026-04-22 17:38 | 31.44435 | 134.66669 | 38895 ft | 526 kts | 47° |
| 2026-04-22 17:39 | 31.48951 | 134.73417 | 38897 ft | 526 kts | 47° |
| 2026-04-22 17:40 | 31.55725 | 134.83563 | 38905 ft | 528 kts | 47° |
| 2026-04-22 17:40 | 31.60254 | 134.90360 | 38911 ft | 529 kts | 47° |
| 2026-04-22 17:41 | 31.64791 | 134.97182 | 38911 ft | 531 kts | 47° |
| 2026-04-22 17:41 | 31.69354 | 135.04056 | 38923 ft | 534 kts | 47° |
| 2026-04-22 17:42 | 31.74047 | 135.10799 | 38924 ft | 533 kts | 43° |
| 2026-04-22 17:42 | 31.78991 | 135.17221 | 38931 ft | 533 kts | 42° |
| 2026-04-22 17:43 | 31.84003 | 135.23659 | 38929 ft | 535 kts | 42° |
| 2026-04-22 17:43 | 31.89002 | 135.30155 | 38939 ft | 536 kts | 43° |
| 2026-04-22 17:44 | 31.93992 | 135.36694 | 38939 ft | 537 kts | 43° |
| 2026-04-22 17:44 | 31.98981 | 135.43249 | 38938 ft | 537 kts | 43° |
| 2026-04-22 17:45 | 32.03966 | 135.49806 | 38938 ft | 537 kts | 43° |
| 2026-04-22 17:45 | 32.08948 | 135.56368 | 38938 ft | 537 kts | 43° |
| 2026-04-22 17:46 | 32.13923 | 135.62931 | 38937 ft | 537 kts | 43° |
| 2026-04-22 17:46 | 32.18897 | 135.69505 | 38940 ft | 536 kts | 43° |
| 2026-04-22 17:47 | 32.23857 | 135.76072 | 38941 ft | 536 kts | 43° |
| 2026-04-22 17:47 | 32.28778 | 135.82600 | 38940 ft | 535 kts | 42° |
| 2026-04-22 17:48 | 32.32925 | 135.88109 | 38941 ft | 535 kts | 42° |
| 2026-04-22 17:48 | 32.38673 | 135.95761 | 38947 ft | 535 kts | 42° |
| 2026-04-22 17:49 | 32.43646 | 136.02390 | 38944 ft | 535 kts | 42° |
| 2026-04-22 17:49 | 32.48555 | 136.08917 | 38943 ft | 534 kts | 42° |
| 2026-04-22 17:50 | 32.53503 | 136.15495 | 38946 ft | 534 kts | 42° |
| 2026-04-22 17:50 | 32.58442 | 136.22076 | 38946 ft | 534 kts | 42° |
| 2026-04-22 17:51 | 32.63378 | 136.28670 | 38945 ft | 534 kts | 42° |
| 2026-04-22 17:51 | 32.68300 | 136.35258 | 38945 ft | 533 kts | 42° |
| 2026-04-22 17:52 | 32.73222 | 136.41858 | 38947 ft | 533 kts | 42° |
| 2026-04-22 17:52 | 32.78139 | 136.48464 | 38948 ft | 534 kts | 42° |
| 2026-04-22 17:53 | 32.83060 | 136.55085 | 38946 ft | 534 kts | 42° |
| 2026-04-22 17:53 | 32.87977 | 136.61715 | 38946 ft | 535 kts | 42° |
| 2026-04-22 17:54 | 32.92866 | 136.68320 | 38952 ft | 535 kts | 42° |
| 2026-04-22 17:54 | 32.97785 | 136.74994 | 38952 ft | 536 kts | 42° |
| 2026-04-22 17:55 | 33.01903 | 136.80596 | 38954 ft | 536 kts | 42° |
| 2026-04-22 17:55 | 33.07613 | 136.88377 | 38950 ft | 537 kts | 42° |
| 2026-04-22 17:56 | 33.12528 | 136.95085 | 38943 ft | 537 kts | 42° |
| 2026-04-22 17:56 | 33.17444 | 137.01809 | 38954 ft | 537 kts | 42° |
| 2026-04-22 17:57 | 33.22357 | 137.08540 | 38953 ft | 538 kts | 42° |
| 2026-04-22 17:57 | 33.27274 | 137.15282 | 38953 ft | 538 kts | 42° |
| 2026-04-22 17:58 | 33.32157 | 137.21986 | 38957 ft | 538 kts | 42° |
| 2026-04-22 17:58 | 33.37072 | 137.28746 | 38940 ft | 538 kts | 42° |
| 2026-04-22 17:59 | 33.41977 | 137.35508 | 38942 ft | 538 kts | 42° |
| 2026-04-22 17:59 | 33.46881 | 137.42283 | 38939 ft | 538 kts | 42° |
| 2026-04-22 18:00 | 33.50955 | 137.47921 | 38940 ft | 538 kts | 42° |
| 2026-04-22 18:00 | 33.56682 | 137.55861 | 38941 ft | 538 kts | 42° |
| 2026-04-22 18:01 | 33.61386 | 137.62821 | 38945 ft | 544 kts | 49° |
| 2026-04-22 18:01 | 33.65265 | 137.70723 | 38945 ft | 551 kts | 56° |
| 2026-04-22 18:02 | 33.68870 | 137.78834 | 38938 ft | 551 kts | 57° |
| 2026-04-22 18:02 | 33.71889 | 137.85565 | 38933 ft | 550 kts | 56° |
| 2026-04-22 18:03 | 33.75551 | 137.93617 | 38933 ft | 549 kts | 56° |
| 2026-04-22 18:03 | 33.79222 | 138.01664 | 38934 ft | 548 kts | 56° |
| 2026-04-22 18:04 | 33.82875 | 138.09705 | 38935 ft | 547 kts | 56° |
| 2026-04-22 18:04 | 33.86513 | 138.17740 | 38940 ft | 547 kts | 56° |
| 2026-04-22 18:05 | 33.90145 | 138.25778 | 38936 ft | 546 kts | 56° |
| 2026-04-22 18:05 | 33.93761 | 138.33824 | 38938 ft | 546 kts | 56° |
| 2026-04-22 18:06 | 33.97356 | 138.41891 | 38938 ft | 546 kts | 56° |
| 2026-04-22 18:06 | 34.00969 | 138.50013 | 38102 ft | 554 kts | 56° |
| 2026-04-22 18:06 | 34.02759 | 138.54042 | 37425 ft | 551 kts | 57° |
| 2026-04-22 18:07 | 34.04561 | 138.58109 | 36821 ft | 549 kts | 57° |
| 2026-04-22 18:07 | 34.06356 | 138.62163 | 36149 ft | 547 kts | 57° |
| 2026-04-22 18:07 | 34.08152 | 138.66222 | 35470 ft | 546 kts | 57° |
| 2026-04-22 18:07 | 34.09946 | 138.70276 | 34676 ft | 549 kts | 57° |
| 2026-04-22 18:08 | 34.11745 | 138.74346 | 33830 ft | 552 kts | 57° |
| 2026-04-22 18:08 | 34.13555 | 138.78445 | 32872 ft | 554 kts | 58° |
| 2026-04-22 18:08 | 34.15369 | 138.82561 | 31993 ft | 556 kts | 58° |
| 2026-04-22 18:08 | 34.17173 | 138.86667 | 31442 ft | 550 kts | 59° |
| 2026-04-22 18:09 | 34.18931 | 138.90670 | 30916 ft | 544 kts | 59° |
| 2026-04-22 18:09 | 34.20700 | 138.94698 | 30387 ft | 539 kts | 59° |
| 2026-04-22 18:09 | 34.22438 | 138.98685 | 29818 ft | 535 kts | 59° |
| 2026-04-22 18:09 | 34.24154 | 139.02655 | 29164 ft | 531 kts | 60° |
| 2026-04-22 18:10 | 34.25854 | 139.06598 | 28533 ft | 527 kts | 60° |
| 2026-04-22 18:10 | 34.27544 | 139.10517 | 27901 ft | 523 kts | 60° |
| 2026-04-22 18:10 | 34.29140 | 139.14451 | 27296 ft | 520 kts | 64° |
| 2026-04-22 18:10 | 34.30562 | 139.18461 | 26693 ft | 517 kts | 66° |
| 2026-04-22 18:11 | 34.31929 | 139.22460 | 26096 ft | 513 kts | 66° |
| 2026-04-22 18:11 | 34.33274 | 139.26442 | 25502 ft | 510 kts | 66° |
| 2026-04-22 18:11 | 34.34617 | 139.30406 | 24902 ft | 507 kts | 66° |
| 2026-04-22 18:11 | 34.35960 | 139.34339 | 24284 ft | 505 kts | 66° |
| 2026-04-22 18:12 | 34.37303 | 139.38252 | 23678 ft | 502 kts | 66° |
| 2026-04-22 18:12 | 34.38644 | 139.42148 | 22990 ft | 500 kts | 66° |
| 2026-04-22 18:12 | 34.39973 | 139.46008 | 22353 ft | 495 kts | 66° |
| 2026-04-22 18:12 | 34.41291 | 139.49841 | 21739 ft | 491 kts | 66° |
| 2026-04-22 18:13 | 34.42595 | 139.53642 | 21131 ft | 486 kts | 66° |
| 2026-04-22 18:13 | 34.43885 | 139.57406 | 20541 ft | 481 kts | 66° |
| 2026-04-22 18:13 | 34.45162 | 139.61139 | 19975 ft | 477 kts | 66° |
| 2026-04-22 18:13 | 34.46411 | 139.64793 | 19398 ft | 473 kts | 66° |
| 2026-04-22 18:14 | 34.47791 | 139.68358 | 18811 ft | 464 kts | 57° |
| 2026-04-22 18:14 | 34.49691 | 139.71480 | 18251 ft | 457 kts | 45° |
| 2026-04-22 18:14 | 34.51972 | 139.74118 | 17608 ft | 448 kts | 35° |
| 2026-04-22 18:14 | 34.54439 | 139.76107 | 17019 ft | 407 kts | 26° |
| 2026-04-22 18:15 | 34.56841 | 139.77784 | 16556 ft | 396 kts | 25° |
| 2026-04-22 18:15 | 34.59226 | 139.79457 | 16061 ft | 396 kts | 26° |
| 2026-04-22 18:15 | 34.61601 | 139.81159 | 15584 ft | 395 kts | 27° |
| 2026-04-22 18:15 | 34.63960 | 139.82878 | 15091 ft | 395 kts | 27° |
| 2026-04-22 18:16 | 34.66308 | 139.84597 | 14612 ft | 392 kts | 26° |
| 2026-04-22 18:16 | 34.68749 | 139.85934 | 14112 ft | 379 kts | 9° |
| 2026-04-22 18:16 | 34.71295 | 139.86345 | 13633 ft | 366 kts | 0° |
| 2026-04-22 18:16 | 34.73836 | 139.86637 | 13097 ft | 367 kts | 1° |
| 2026-04-22 18:17 | 34.76375 | 139.86958 | 12582 ft | 367 kts | 2° |
| 2026-04-22 18:17 | 34.78915 | 139.87301 | 12090 ft | 367 kts | 2° |
| 2026-04-22 18:17 | 34.81417 | 139.87652 | 11623 ft | 366 kts | 2° |
| 2026-04-22 18:17 | 34.83948 | 139.88013 | 11127 ft | 366 kts | 3° |
| 2026-04-22 18:18 | 34.86480 | 139.88377 | 10695 ft | 364 kts | 3° |
| 2026-04-22 18:18 | 34.88934 | 139.88734 | 10529 ft | 340 kts | 3° |
| 2026-04-22 18:18 | 34.91164 | 139.89062 | 10375 ft | 306 kts | 3° |
| 2026-04-22 18:18 | 34.93178 | 139.89357 | 10239 ft | 281 kts | 2° |
| 2026-04-22 18:19 | 34.95068 | 139.89466 | 10129 ft | 264 kts | 346° |
| 2026-04-22 18:19 | 34.96824 | 139.88960 | 10053 ft | 258 kts | 340° |
| 2026-04-22 18:19 | 34.98588 | 139.88374 | 9839 ft | 272 kts | 340° |
| 2026-04-22 18:19 | 35.00457 | 139.87754 | 9509 ft | 283 kts | 340° |
| 2026-04-22 18:20 | 35.02373 | 139.87132 | 9167 ft | 285 kts | 341° |
| 2026-04-22 18:20 | 35.04289 | 139.86519 | 8822 ft | 284 kts | 341° |
| 2026-04-22 18:20 | 35.06200 | 139.85911 | 8493 ft | 283 kts | 341° |
| 2026-04-22 18:20 | 35.08099 | 139.85308 | 8138 ft | 276 kts | 341° |
| 2026-04-22 18:21 | 35.09918 | 139.84732 | 7849 ft | 274 kts | 342° |
| 2026-04-22 18:21 | 35.11801 | 139.84133 | 7523 ft | 275 kts | 342° |
| 2026-04-22 18:21 | 35.13632 | 139.83551 | 7195 ft | 276 kts | 342° |
| 2026-04-22 18:21 | 35.15441 | 139.82977 | 6891 ft | 263 kts | 342° |
| 2026-04-22 18:22 | 35.17219 | 139.82417 | 6623 ft | 264 kts | 342° |
| 2026-04-22 18:22 | 35.18989 | 139.81858 | 6407 ft | 263 kts | 342° |
| 2026-04-22 18:22 | 35.20788 | 139.81284 | 5943 ft | 269 kts | 342° |
| 2026-04-22 18:22 | 35.22583 | 139.80716 | 5585 ft | 259 kts | 342° |
| 2026-04-22 18:23 | 35.24290 | 139.80176 | 5289 ft | 253 kts | 342° |
| 2026-04-22 18:23 | 35.26006 | 139.79629 | 4988 ft | 255 kts | 342° |
| 2026-04-22 18:23 | 35.27722 | 139.79083 | 4680 ft | 255 kts | 342° |
| 2026-04-22 18:24 | 35.31179 | 139.78190 | 4018 ft | 253 kts | 3° |
| 2026-04-22 18:24 | 35.32824 | 139.78909 | 3749 ft | 251 kts | 33° |
| 2026-04-22 18:24 | 35.35631 | 139.81453 | 3211 ft | 252 kts | 36° |
| 2026-04-22 18:25 | 35.37022 | 139.82713 | 2926 ft | 252 kts | 36° |
| 2026-04-22 18:25 | 35.38434 | 139.83992 | 2642 ft | 252 kts | 36° |
| 2026-04-22 18:25 | 35.39832 | 139.85257 | 2354 ft | 244 kts | 36° |
| 2026-04-22 18:26 | 35.42591 | 139.86906 | 1842 ft | 215 kts | 360° |
| 2026-04-22 18:26 | 35.44047 | 139.86887 | 1630 ft | 203 kts | 357° |
| 2026-04-22 18:26 | 35.45347 | 139.86471 | 1545 ft | 190 kts | 335° |
| 2026-04-22 18:26 | 35.46488 | 139.85799 | 1511 ft | 171 kts | 332° |
| 2026-04-22 18:27 | 35.47474 | 139.85128 | 1472 ft | 155 kts | 330° |
| 2026-04-22 18:27 | 35.48391 | 139.84478 | 1377 ft | 155 kts | 330° |
| 2026-04-22 18:27 | 35.49301 | 139.83831 | 1176 ft | 146 kts | 330° |
| 2026-04-22 18:27 | 35.50145 | 139.83229 | 960 ft | 136 kts | 329° |
| 2026-04-22 18:28 | 35.50957 | 139.82650 | 746 ft | 132 kts | 330° |
| 2026-04-22 18:28 | 35.51744 | 139.82093 | 631 ft | 131 kts | 330° |
| 2026-04-22 18:28 | 35.52539 | 139.81530 | 461 ft | 132 kts | 330° |
| 2026-04-22 18:28 | 35.53333 | 139.80966 | 258 ft | 133 kts | 330° |
| 2026-04-22 18:29 | 35.54124 | 139.80413 | 105 ft | 128 kts | 329° |
| 2026-04-22 18:29 | 35.54821 | 139.79914 | 33 ft | 101 kts | 329° |
| 2026-04-22 18:29 | 35.55295 | 139.79575 | 32 ft | 57 kts | 330° |
| 2026-04-22 18:29 | 35.55567 | 139.79383 | 32 ft | 38 kts | 330° |
| 2026-04-22 18:30 | 35.55748 | 139.79192 | 30 ft | 30 kts | 307° |
| 2026-04-22 18:30 | 35.55692 | 139.79037 | 30 ft | 14 kts | 155° |
| 2026-04-22 18:30 | 35.55604 | 139.79097 | 30 ft | 14 kts | 151° |
| 2026-04-22 18:31 | 35.55512 | 139.79129 | 30 ft | 14 kts | 203° |
| 2026-04-22 18:31 | 35.55452 | 139.79043 | 31 ft | 9 kts | 237° |
| 2026-04-22 18:31 | 35.55450 | 139.78979 | 31 ft | 7 kts | 311° |
| 2026-04-22 18:31 | 35.55488 | 139.78945 | 31 ft | 0 kts | 329° |
| 2026-04-22 18:32 | 35.55489 | 139.78945 | 31 ft | 2 kts | 329° |
| 2026-04-22 18:32 | 35.55497 | 139.78939 | 31 ft | 0 kts | 328° |